sensor_id;sensor_type;location;lat;lon;timestamp;temperature;humidity
11818;DHT22;5966;52.402;5.322;2023-03-14T00:01:37;11.40;99.90
11818;DHT22;5966;52.402;5.322;2023-03-14T00:04:05;11.30;99.90
11818;DHT22;5966;52.402;5.322;2023-03-14T00:06:34;11.30;99.90
11818;DHT22;5966;52.402;5.322;2023-03-14T00:09:02;11.30;99.90
11818;DHT22;5966;52.402;5.322;2023-03-14T00:11:30;11.30;99.90
11818;DHT22;5966;52.402;5.322;2023-03-14T00:13:58;11.30;99.90
11818;DHT22;5966;52.402;5.322;2023-03-14T00:16:28;11.20;99.90
11818;DHT22;5966;52.402;5.322;2023-03-14T00:18:58;11.20;99.90
11818;DHT22;5966;52.402;5.322;2023-03-14T00:21:26;11.20;99.90
11818;DHT22;5966;52.402;5.322;2023-03-14T00:23:54;11.20;99.90
11818;DHT22;5966;52.402;5.322;2023-03-14T00:26:22;11.20;99.90
11818;DHT22;5966;52.402;5.322;2023-03-14T00:28:52;11.20;99.90
11818;DHT22;5966;52.402;5.322;2023-03-14T00:31:20;11.20;99.90
11818;DHT22;5966;52.402;5.322;2023-03-14T00:33:52;11.30;99.90
11818;DHT22;5966;52.402;5.322;2023-03-14T00:36:21;11.20;99.90
11818;DHT22;5966;52.402;5.322;2023-03-14T00:38:50;11.30;99.90
11818;DHT22;5966;52.402;5.322;2023-03-14T00:41:20;11.30;99.90
11818;DHT22;5966;52.402;5.322;2023-03-14T00:43:49;11.20;99.90
11818;DHT22;5966;52.402;5.322;2023-03-14T00:46:17;11.20;99.90
11818;DHT22;5966;52.402;5.322;2023-03-14T00:48:46;11.20;99.90
11818;DHT22;5966;52.402;5.322;2023-03-14T00:51:16;11.20;99.90
11818;DHT22;5966;52.402;5.322;2023-03-14T00:53:45;11.20;99.90
11818;DHT22;5966;52.402;5.322;2023-03-14T00:56:13;11.20;99.90
11818;DHT22;5966;52.402;5.322;2023-03-14T00:58:41;11.20;99.90
11818;DHT22;5966;52.402;5.322;2023-03-14T01:01:12;11.20;99.90
11818;DHT22;5966;52.402;5.322;2023-03-14T01:03:41;11.20;99.90
11818;DHT22;5966;52.402;5.322;2023-03-14T01:06:11;11.20;99.90
11818;DHT22;5966;52.402;5.322;2023-03-14T01:08:41;11.20;99.90
11818;DHT22;5966;52.402;5.322;2023-03-14T01:11:11;11.10;99.90
11818;DHT22;5966;52.402;5.322;2023-03-14T01:13:39;11.10;99.90
11818;DHT22;5966;52.402;5.322;2023-03-14T01:16:09;11.10;99.90
11818;DHT22;5966;52.402;5.322;2023-03-14T01:18:39;11.10;99.90
11818;DHT22;5966;52.402;5.322;2023-03-14T01:21:11;11.10;99.90
11818;DHT22;5966;52.402;5.322;2023-03-14T01:23:41;11.10;99.90
11818;DHT22;5966;52.402;5.322;2023-03-14T01:26:10;11.10;99.90
11818;DHT22;5966;52.402;5.322;2023-03-14T01:28:38;11.10;99.90
11818;DHT22;5966;52.402;5.322;2023-03-14T01:31:08;11.10;99.90
11818;DHT22;5966;52.402;5.322;2023-03-14T01:33:37;11.10;99.90
11818;DHT22;5966;52.402;5.322;2023-03-14T01:36:06;11.00;99.90
11818;DHT22;5966;52.402;5.322;2023-03-14T01:38:36;11.00;99.90
11818;DHT22;5966;52.402;5.322;2023-03-14T01:41:07;10.90;99.90
11818;DHT22;5966;52.402;5.322;2023-03-14T01:43:35;10.80;99.90
11818;DHT22;5966;52.402;5.322;2023-03-14T01:46:25;10.80;99.90
11818;DHT22;5966;52.402;5.322;2023-03-14T01:48:58;10.70;99.90
11818;DHT22;5966;52.402;5.322;2023-03-14T01:51:30;10.60;99.90
11818;DHT22;5966;52.402;5.322;2023-03-14T01:54:06;10.50;99.90
11818;DHT22;5966;52.402;5.322;2023-03-14T01:56:39;10.40;99.90
11818;DHT22;5966;52.402;5.322;2023-03-14T01:59:10;10.40;99.90
11818;DHT22;5966;52.402;5.322;2023-03-14T02:01:41;10.40;99.90
11818;DHT22;5966;52.402;5.322;2023-03-14T02:04:11;10.30;99.90
11818;DHT22;5966;52.402;5.322;2023-03-14T02:06:51;10.40;99.90
11818;DHT22;5966;52.402;5.322;2023-03-14T02:09:20;10.40;99.90
11818;DHT22;5966;52.402;5.322;2023-03-14T02:11:50;10.40;99.90
11818;DHT22;5966;52.402;5.322;2023-03-14T02:14:29;10.40;99.90
11818;DHT22;5966;52.402;5.322;2023-03-14T02:16:58;10.40;99.90
11818;DHT22;5966;52.402;5.322;2023-03-14T02:19:42;10.40;99.90
11818;DHT22;5966;52.402;5.322;2023-03-14T02:22:15;10.40;99.90
11818;DHT22;5966;52.402;5.322;2023-03-14T02:24:51;10.40;99.90
11818;DHT22;5966;52.402;5.322;2023-03-14T02:27:24;10.40;99.90
11818;DHT22;5966;52.402;5.322;2023-03-14T02:29:54;10.40;99.90
11818;DHT22;5966;52.402;5.322;2023-03-14T02:32:25;10.40;99.90
11818;DHT22;5966;52.402;5.322;2023-03-14T02:34:55;10.40;99.90
11818;DHT22;5966;52.402;5.322;2023-03-14T02:37:27;10.50;99.90
11818;DHT22;5966;52.402;5.322;2023-03-14T02:39:56;10.50;99.90
11818;DHT22;5966;52.402;5.322;2023-03-14T02:42:25;10.50;99.90
11818;DHT22;5966;52.402;5.322;2023-03-14T02:44:55;10.40;99.90
11818;DHT22;5966;52.402;5.322;2023-03-14T02:47:29;10.40;99.90
11818;DHT22;5966;52.402;5.322;2023-03-14T02:50:03;10.40;99.90
11818;DHT22;5966;52.402;5.322;2023-03-14T02:52:32;10.40;99.90
11818;DHT22;5966;52.402;5.322;2023-03-14T02:55:00;10.40;99.90
11818;DHT22;5966;52.402;5.322;2023-03-14T02:57:29;10.40;99.90
11818;DHT22;5966;52.402;5.322;2023-03-14T02:59:58;10.40;99.90
11818;DHT22;5966;52.402;5.322;2023-03-14T03:02:26;10.40;99.90
11818;DHT22;5966;52.402;5.322;2023-03-14T03:04:54;10.30;99.90
11818;DHT22;5966;52.402;5.322;2023-03-14T03:07:22;10.30;99.90
11818;DHT22;5966;52.402;5.322;2023-03-14T03:09:50;10.30;99.90
11818;DHT22;5966;52.402;5.322;2023-03-14T03:12:18;10.30;99.90
11818;DHT22;5966;52.402;5.322;2023-03-14T03:14:48;10.30;99.90
11818;DHT22;5966;52.402;5.322;2023-03-14T03:17:16;10.20;99.90
11818;DHT22;5966;52.402;5.322;2023-03-14T03:19:44;10.20;99.90
11818;DHT22;5966;52.402;5.322;2023-03-14T03:22:12;10.20;99.90
11818;DHT22;5966;52.402;5.322;2023-03-14T03:24:40;10.20;99.90
11818;DHT22;5966;52.402;5.322;2023-03-14T03:27:08;10.20;99.90
11818;DHT22;5966;52.402;5.322;2023-03-14T03:29:35;10.10;99.90
11818;DHT22;5966;52.402;5.322;2023-03-14T03:32:05;10.10;99.90
11818;DHT22;5966;52.402;5.322;2023-03-14T03:34:33;10.10;99.90
11818;DHT22;5966;52.402;5.322;2023-03-14T03:37:01;10.00;99.90
11818;DHT22;5966;52.402;5.322;2023-03-14T03:39:29;10.10;99.90
11818;DHT22;5966;52.402;5.322;2023-03-14T03:41:57;10.00;99.90
11818;DHT22;5966;52.402;5.322;2023-03-14T03:44:25;10.10;99.90
11818;DHT22;5966;52.402;5.322;2023-03-14T03:46:53;10.00;99.90
11818;DHT22;5966;52.402;5.322;2023-03-14T03:49:22;10.00;99.90
11818;DHT22;5966;52.402;5.322;2023-03-14T03:51:50;10.00;99.90
11818;DHT22;5966;52.402;5.322;2023-03-14T03:54:18;10.10;99.90
11818;DHT22;5966;52.402;5.322;2023-03-14T03:56:46;10.00;99.90
11818;DHT22;5966;52.402;5.322;2023-03-14T03:59:14;10.10;99.90
11818;DHT22;5966;52.402;5.322;2023-03-14T04:01:42;10.10;99.90
11818;DHT22;5966;52.402;5.322;2023-03-14T04:04:10;10.10;99.90
11818;DHT22;5966;52.402;5.322;2023-03-14T04:06:40;10.10;99.90
11818;DHT22;5966;52.402;5.322;2023-03-14T04:09:08;10.10;99.90
11818;DHT22;5966;52.402;5.322;2023-03-14T04:11:36;10.10;99.90
11818;DHT22;5966;52.402;5.322;2023-03-14T04:14:05;10.10;99.90
11818;DHT22;5966;52.402;5.322;2023-03-14T04:16:33;10.10;99.90
11818;DHT22;5966;52.402;5.322;2023-03-14T04:19:02;10.10;99.90
11818;DHT22;5966;52.402;5.322;2023-03-14T04:21:30;10.10;99.90
11818;DHT22;5966;52.402;5.322;2023-03-14T04:23:59;10.10;99.90
11818;DHT22;5966;52.402;5.322;2023-03-14T04:26:27;10.20;99.90
11818;DHT22;5966;52.402;5.322;2023-03-14T04:28:55;10.20;99.90
11818;DHT22;5966;52.402;5.322;2023-03-14T04:31:23;10.20;99.90
11818;DHT22;5966;52.402;5.322;2023-03-14T04:33:51;10.20;99.90
11818;DHT22;5966;52.402;5.322;2023-03-14T04:36:19;10.20;99.90
11818;DHT22;5966;52.402;5.322;2023-03-14T04:38:47;10.20;99.90
11818;DHT22;5966;52.402;5.322;2023-03-14T04:41:16;10.20;99.90
11818;DHT22;5966;52.402;5.322;2023-03-14T04:43:44;10.10;99.90
11818;DHT22;5966;52.402;5.322;2023-03-14T04:46:12;10.10;99.90
11818;DHT22;5966;52.402;5.322;2023-03-14T04:48:40;10.10;99.90
11818;DHT22;5966;52.402;5.322;2023-03-14T04:51:08;10.10;99.90
11818;DHT22;5966;52.402;5.322;2023-03-14T04:53:36;10.10;99.90
11818;DHT22;5966;52.402;5.322;2023-03-14T04:56:05;10.10;99.90
11818;DHT22;5966;52.402;5.322;2023-03-14T04:58:34;10.10;99.90
11818;DHT22;5966;52.402;5.322;2023-03-14T05:01:03;10.10;99.90
11818;DHT22;5966;52.402;5.322;2023-03-14T05:03:32;10.00;99.90
11818;DHT22;5966;52.402;5.322;2023-03-14T05:06:00;10.00;99.90
11818;DHT22;5966;52.402;5.322;2023-03-14T05:08:28;10.00;99.90
11818;DHT22;5966;52.402;5.322;2023-03-14T05:10:57;10.00;99.90
11818;DHT22;5966;52.402;5.322;2023-03-14T05:13:25;9.90;99.90
11818;DHT22;5966;52.402;5.322;2023-03-14T05:16:03;10.00;99.90
11818;DHT22;5966;52.402;5.322;2023-03-14T05:18:31;9.90;99.90
11818;DHT22;5966;52.402;5.322;2023-03-14T05:20:59;9.80;99.90
11818;DHT22;5966;52.402;5.322;2023-03-14T05:23:27;9.80;99.90
11818;DHT22;5966;52.402;5.322;2023-03-14T05:25:55;9.80;99.90
11818;DHT22;5966;52.402;5.322;2023-03-14T05:28:23;9.80;99.90
11818;DHT22;5966;52.402;5.322;2023-03-14T05:30:51;9.80;99.90
11818;DHT22;5966;52.402;5.322;2023-03-14T05:33:21;9.70;99.90
11818;DHT22;5966;52.402;5.322;2023-03-14T05:35:49;9.70;99.90
11818;DHT22;5966;52.402;5.322;2023-03-14T05:38:17;9.70;99.90
11818;DHT22;5966;52.402;5.322;2023-03-14T05:40:45;9.70;99.90
11818;DHT22;5966;52.402;5.322;2023-03-14T05:43:13;9.60;99.90
11818;DHT22;5966;52.402;5.322;2023-03-14T05:45:42;9.70;99.90
11818;DHT22;5966;52.402;5.322;2023-03-14T05:48:11;9.60;99.90
11818;DHT22;5966;52.402;5.322;2023-03-14T05:50:40;9.60;99.90
11818;DHT22;5966;52.402;5.322;2023-03-14T05:53:08;9.60;99.90
11818;DHT22;5966;52.402;5.322;2023-03-14T05:55:36;9.60;99.90
11818;DHT22;5966;52.402;5.322;2023-03-14T05:58:04;9.60;99.90
11818;DHT22;5966;52.402;5.322;2023-03-14T06:00:32;9.70;99.90
11818;DHT22;5966;52.402;5.322;2023-03-14T06:03:00;9.70;99.90
11818;DHT22;5966;52.402;5.322;2023-03-14T06:05:28;9.70;99.90
11818;DHT22;5966;52.402;5.322;2023-03-14T06:07:57;9.70;99.90
11818;DHT22;5966;52.402;5.322;2023-03-14T06:10:25;9.70;99.90
11818;DHT22;5966;52.402;5.322;2023-03-14T06:12:53;9.60;99.90
11818;DHT22;5966;52.402;5.322;2023-03-14T06:15:21;9.60;99.90
11818;DHT22;5966;52.402;5.322;2023-03-14T06:17:49;9.50;99.90
11818;DHT22;5966;52.402;5.322;2023-03-14T06:20:17;9.30;99.90
11818;DHT22;5966;52.402;5.322;2023-03-14T06:22:45;9.20;99.90
11818;DHT22;5966;52.402;5.322;2023-03-14T06:25:14;9.10;99.90
11818;DHT22;5966;52.402;5.322;2023-03-14T06:27:42;8.90;99.90
11818;DHT22;5966;52.402;5.322;2023-03-14T06:30:11;8.70;99.90
11818;DHT22;5966;52.402;5.322;2023-03-14T06:32:39;8.50;99.90
11818;DHT22;5966;52.402;5.322;2023-03-14T06:35:07;8.40;99.90
11818;DHT22;5966;52.402;5.322;2023-03-14T06:37:35;8.20;99.90
11818;DHT22;5966;52.402;5.322;2023-03-14T06:40:04;8.20;99.90
11818;DHT22;5966;52.402;5.322;2023-03-14T06:42:35;8.00;99.90
11818;DHT22;5966;52.402;5.322;2023-03-14T06:45:03;8.00;99.90
11818;DHT22;5966;52.402;5.322;2023-03-14T06:47:31;7.90;99.90
11818;DHT22;5966;52.402;5.322;2023-03-14T06:49:59;7.90;99.90
11818;DHT22;5966;52.402;5.322;2023-03-14T06:52:27;7.80;99.90
11818;DHT22;5966;52.402;5.322;2023-03-14T06:54:55;7.70;99.90
11818;DHT22;5966;52.402;5.322;2023-03-14T06:57:23;7.70;99.90
11818;DHT22;5966;52.402;5.322;2023-03-14T06:59:53;7.70;99.90
11818;DHT22;5966;52.402;5.322;2023-03-14T07:02:20;7.70;99.90
11818;DHT22;5966;52.402;5.322;2023-03-14T07:05:07;7.60;99.90
11818;DHT22;5966;52.402;5.322;2023-03-14T07:07:36;7.60;99.90
11818;DHT22;5966;52.402;5.322;2023-03-14T07:10:05;7.60;99.90
11818;DHT22;5966;52.402;5.322;2023-03-14T07:12:35;7.50;99.90
11818;DHT22;5966;52.402;5.322;2023-03-14T07:15:05;7.40;99.90
11818;DHT22;5966;52.402;5.322;2023-03-14T07:17:53;7.40;99.90
11818;DHT22;5966;52.402;5.322;2023-03-14T07:20:22;7.30;99.90
11818;DHT22;5966;52.402;5.322;2023-03-14T07:22:50;7.10;99.90
11818;DHT22;5966;52.402;5.322;2023-03-14T07:25:18;6.70;99.90
11818;DHT22;5966;52.402;5.322;2023-03-14T07:27:46;6.40;99.90
11818;DHT22;5966;52.402;5.322;2023-03-14T07:30:16;6.20;99.90
11818;DHT22;5966;52.402;5.322;2023-03-14T07:32:44;6.10;99.90
11818;DHT22;5966;52.402;5.322;2023-03-14T07:35:12;6.00;99.90
11818;DHT22;5966;52.402;5.322;2023-03-14T07:37:40;5.90;99.90
11818;DHT22;5966;52.402;5.322;2023-03-14T07:40:09;5.90;99.90
11818;DHT22;5966;52.402;5.322;2023-03-14T07:42:39;5.80;99.90
11818;DHT22;5966;52.402;5.322;2023-03-14T07:45:08;5.70;99.90
11818;DHT22;5966;52.402;5.322;2023-03-14T07:47:37;5.70;99.90
11818;DHT22;5966;52.402;5.322;2023-03-14T07:50:06;5.60;99.90
11818;DHT22;5966;52.402;5.322;2023-03-14T07:52:34;5.60;99.90
11818;DHT22;5966;52.402;5.322;2023-03-14T07:55:02;5.50;99.90
11818;DHT22;5966;52.402;5.322;2023-03-14T07:57:30;5.50;99.90
11818;DHT22;5966;52.402;5.322;2023-03-14T07:59:58;5.40;99.90
11818;DHT22;5966;52.402;5.322;2023-03-14T08:02:26;5.40;99.90
11818;DHT22;5966;52.402;5.322;2023-03-14T08:04:56;5.50;99.90
11818;DHT22;5966;52.402;5.322;2023-03-14T08:07:24;5.40;99.90
11818;DHT22;5966;52.402;5.322;2023-03-14T08:09:51;5.40;99.90
11818;DHT22;5966;52.402;5.322;2023-03-14T08:12:19;5.30;99.90
11818;DHT22;5966;52.402;5.322;2023-03-14T08:14:47;5.40;99.90
11818;DHT22;5966;52.402;5.322;2023-03-14T08:17:15;5.50;99.90
11818;DHT22;5966;52.402;5.322;2023-03-14T08:19:43;5.60;99.90
11818;DHT22;5966;52.402;5.322;2023-03-14T08:22:13;5.50;99.90
11818;DHT22;5966;52.402;5.322;2023-03-14T08:24:43;5.60;99.90
11818;DHT22;5966;52.402;5.322;2023-03-14T08:27:11;5.60;99.90
11818;DHT22;5966;52.402;5.322;2023-03-14T08:29:41;5.70;99.90
11818;DHT22;5966;52.402;5.322;2023-03-14T08:32:10;5.70;99.90
11818;DHT22;5966;52.402;5.322;2023-03-14T08:34:38;5.80;99.90
11818;DHT22;5966;52.402;5.322;2023-03-14T08:37:06;5.80;99.90
11818;DHT22;5966;52.402;5.322;2023-03-14T08:39:53;5.90;99.90
11818;DHT22;5966;52.402;5.322;2023-03-14T08:42:21;5.90;99.90
11818;DHT22;5966;52.402;5.322;2023-03-14T08:44:50;5.90;99.90
11818;DHT22;5966;52.402;5.322;2023-03-14T08:47:18;5.80;99.90
11818;DHT22;5966;52.402;5.322;2023-03-14T08:49:46;5.80;99.90
11818;DHT22;5966;52.402;5.322;2023-03-14T08:52:14;5.80;99.90
11818;DHT22;5966;52.402;5.322;2023-03-14T08:54:43;5.80;99.90
11818;DHT22;5966;52.402;5.322;2023-03-14T08:57:13;5.80;99.90
11818;DHT22;5966;52.402;5.322;2023-03-14T08:59:40;5.90;99.90
11818;DHT22;5966;52.402;5.322;2023-03-14T09:02:10;5.90;99.90
11818;DHT22;5966;52.402;5.322;2023-03-14T09:04:39;5.90;99.90
11818;DHT22;5966;52.402;5.322;2023-03-14T09:07:07;5.90;99.90
11818;DHT22;5966;52.402;5.322;2023-03-14T09:09:35;5.90;99.90
11818;DHT22;5966;52.402;5.322;2023-03-14T09:12:04;6.00;99.90
11818;DHT22;5966;52.402;5.322;2023-03-14T09:14:33;6.00;99.90
11818;DHT22;5966;52.402;5.322;2023-03-14T09:17:02;6.00;99.90
11818;DHT22;5966;52.402;5.322;2023-03-14T09:19:31;6.10;99.90
11818;DHT22;5966;52.402;5.322;2023-03-14T09:21:59;6.20;99.90
11818;DHT22;5966;52.402;5.322;2023-03-14T09:24:27;6.20;99.90
11818;DHT22;5966;52.402;5.322;2023-03-14T09:26:55;6.20;99.90
11818;DHT22;5966;52.402;5.322;2023-03-14T09:29:24;6.30;99.90
11818;DHT22;5966;52.402;5.322;2023-03-14T09:31:53;6.30;99.90
11818;DHT22;5966;52.402;5.322;2023-03-14T09:34:21;6.40;99.90
11818;DHT22;5966;52.402;5.322;2023-03-14T09:36:49;6.50;99.90
11818;DHT22;5966;52.402;5.322;2023-03-14T09:39:17;6.50;99.90
11818;DHT22;5966;52.402;5.322;2023-03-14T09:41:47;6.50;99.90
11818;DHT22;5966;52.402;5.322;2023-03-14T09:44:19;6.50;99.90
11818;DHT22;5966;52.402;5.322;2023-03-14T09:46:53;6.40;99.90
11818;DHT22;5966;52.402;5.322;2023-03-14T09:49:25;6.30;99.90
11818;DHT22;5966;52.402;5.322;2023-03-14T09:51:56;6.20;99.90
11818;DHT22;5966;52.402;5.322;2023-03-14T09:54:32;6.10;99.90
11818;DHT22;5966;52.402;5.322;2023-03-14T09:57:01;6.10;99.90
11818;DHT22;5966;52.402;5.322;2023-03-14T09:59:30;6.10;99.90
11818;DHT22;5966;52.402;5.322;2023-03-14T10:02:01;6.20;99.90
11818;DHT22;5966;52.402;5.322;2023-03-14T10:04:30;6.20;99.90
11818;DHT22;5966;52.402;5.322;2023-03-14T10:06:59;6.30;99.90
11818;DHT22;5966;52.402;5.322;2023-03-14T10:09:30;6.40;99.90
11818;DHT22;5966;52.402;5.322;2023-03-14T10:11:58;6.40;99.90
11818;DHT22;5966;52.402;5.322;2023-03-14T10:14:32;6.50;99.90
11818;DHT22;5966;52.402;5.322;2023-03-14T10:17:12;6.50;99.90
11818;DHT22;5966;52.402;5.322;2023-03-14T10:19:51;6.60;99.90
11818;DHT22;5966;52.402;5.322;2023-03-14T10:22:21;6.50;99.90
11818;DHT22;5966;52.402;5.322;2023-03-14T10:24:53;6.40;99.90
11818;DHT22;5966;52.402;5.322;2023-03-14T10:27:28;6.50;99.90
11818;DHT22;5966;52.402;5.322;2023-03-14T10:29:58;6.50;99.90
11818;DHT22;5966;52.402;5.322;2023-03-14T10:32:35;6.40;99.90
11818;DHT22;5966;52.402;5.322;2023-03-14T10:35:07;6.50;99.90
11818;DHT22;5966;52.402;5.322;2023-03-14T10:37:35;6.60;99.90
11818;DHT22;5966;52.402;5.322;2023-03-14T10:40:05;6.60;99.90
11818;DHT22;5966;52.402;5.322;2023-03-14T10:42:38;6.60;99.90
11818;DHT22;5966;52.402;5.322;2023-03-14T10:45:25;6.70;99.90
11818;DHT22;5966;52.402;5.322;2023-03-14T10:47:58;6.80;99.90
11818;DHT22;5966;52.402;5.322;2023-03-14T10:50:30;6.90;99.90
11818;DHT22;5966;52.402;5.322;2023-03-14T10:53:02;6.90;99.90
11818;DHT22;5966;52.402;5.322;2023-03-14T10:55:40;7.00;99.90
11818;DHT22;5966;52.402;5.322;2023-03-14T10:58:20;7.00;99.90
11818;DHT22;5966;52.402;5.322;2023-03-14T11:00:53;7.00;99.90
11818;DHT22;5966;52.402;5.322;2023-03-14T11:03:28;7.00;99.90
11818;DHT22;5966;52.402;5.322;2023-03-14T11:06:05;7.00;99.90
11818;DHT22;5966;52.402;5.322;2023-03-14T11:08:39;7.00;99.90
11818;DHT22;5966;52.402;5.322;2023-03-14T11:11:15;7.20;99.90
11818;DHT22;5966;52.402;5.322;2023-03-14T11:13:58;7.20;99.90
11818;DHT22;5966;52.402;5.322;2023-03-14T11:16:37;7.30;99.90
11818;DHT22;5966;52.402;5.322;2023-03-14T11:19:31;7.40;99.90
11818;DHT22;5966;52.402;5.322;2023-03-14T11:22:05;7.30;99.90
11818;DHT22;5966;52.402;5.322;2023-03-14T11:24:45;7.30;99.90
11818;DHT22;5966;52.402;5.322;2023-03-14T11:27:18;7.20;99.90
11818;DHT22;5966;52.402;5.322;2023-03-14T11:29:53;7.30;99.90
11818;DHT22;5966;52.402;5.322;2023-03-14T11:32:31;7.30;99.90
11818;DHT22;5966;52.402;5.322;2023-03-14T11:35:13;7.40;99.90
11818;DHT22;5966;52.402;5.322;2023-03-14T11:37:47;7.50;99.90
11818;DHT22;5966;52.402;5.322;2023-03-14T11:40:18;7.60;99.90
11818;DHT22;5966;52.402;5.322;2023-03-14T11:42:52;7.60;99.90
11818;DHT22;5966;52.402;5.322;2023-03-14T11:45:26;7.60;99.90
11818;DHT22;5966;52.402;5.322;2023-03-14T11:48:13;7.70;99.90
11818;DHT22;5966;52.402;5.322;2023-03-14T11:50:44;7.60;99.90
11818;DHT22;5966;52.402;5.322;2023-03-14T11:53:16;7.60;99.90
11818;DHT22;5966;52.402;5.322;2023-03-14T11:55:47;7.60;99.90
11818;DHT22;5966;52.402;5.322;2023-03-14T11:58:20;7.60;99.90
11818;DHT22;5966;52.402;5.322;2023-03-14T12:00:49;7.60;99.90
11818;DHT22;5966;52.402;5.322;2023-03-14T12:03:26;7.50;99.90
11818;DHT22;5966;52.402;5.322;2023-03-14T12:06:08;7.50;99.90
11818;DHT22;5966;52.402;5.322;2023-03-14T12:08:44;7.50;99.90
11818;DHT22;5966;52.402;5.322;2023-03-14T12:11:32;7.50;99.90
11818;DHT22;5966;52.402;5.322;2023-03-14T12:14:01;7.50;99.90
11818;DHT22;5966;52.402;5.322;2023-03-14T12:16:35;7.50;99.90
11818;DHT22;5966;52.402;5.322;2023-03-14T12:19:34;7.40;99.90
11818;DHT22;5966;52.402;5.322;2023-03-14T12:22:16;7.40;99.90
11818;DHT22;5966;52.402;5.322;2023-03-14T12:24:51;7.30;99.90
11818;DHT22;5966;52.402;5.322;2023-03-14T12:30:37;7.50;99.90
11818;DHT22;5966;52.402;5.322;2023-03-14T12:33:28;7.50;99.90
11818;DHT22;5966;52.402;5.322;2023-03-14T12:36:01;7.60;99.90
11818;DHT22;5966;52.402;5.322;2023-03-14T12:38:45;7.70;99.90
11818;DHT22;5966;52.402;5.322;2023-03-14T12:41:18;7.70;99.90
11818;DHT22;5966;52.402;5.322;2023-03-14T12:43:47;7.70;99.90
11818;DHT22;5966;52.402;5.322;2023-03-14T12:46:21;7.70;99.90
11818;DHT22;5966;52.402;5.322;2023-03-14T12:48:50;7.80;99.90
11818;DHT22;5966;52.402;5.322;2023-03-14T12:51:29;7.70;99.90
11818;DHT22;5966;52.402;5.322;2023-03-14T12:54:22;7.70;99.90
11818;DHT22;5966;52.402;5.322;2023-03-14T12:57:15;7.70;99.90
11818;DHT22;5966;52.402;5.322;2023-03-14T12:59:51;7.70;99.90
11818;DHT22;5966;52.402;5.322;2023-03-14T13:02:25;7.70;99.90
11818;DHT22;5966;52.402;5.322;2023-03-14T13:05:04;7.70;99.90
11818;DHT22;5966;52.402;5.322;2023-03-14T13:08:03;7.60;99.90
11818;DHT22;5966;52.402;5.322;2023-03-14T13:10:39;7.70;99.90
11818;DHT22;5966;52.402;5.322;2023-03-14T13:13:17;7.60;99.90
11818;DHT22;5966;52.402;5.322;2023-03-14T13:15:48;7.70;99.90
11818;DHT22;5966;52.402;5.322;2023-03-14T13:18:26;7.70;99.90
11818;DHT22;5966;52.402;5.322;2023-03-14T13:20:58;7.60;99.90
11818;DHT22;5966;52.402;5.322;2023-03-14T13:23:28;7.60;99.90
11818;DHT22;5966;52.402;5.322;2023-03-14T13:25:59;7.50;99.90
11818;DHT22;5966;52.402;5.322;2023-03-14T13:28:29;7.50;99.90
11818;DHT22;5966;52.402;5.322;2023-03-14T13:31:00;7.50;99.90
11818;DHT22;5966;52.402;5.322;2023-03-14T13:33:29;7.60;99.90
11818;DHT22;5966;52.402;5.322;2023-03-14T13:36:00;7.60;99.90
11818;DHT22;5966;52.402;5.322;2023-03-14T13:38:31;7.70;99.90
11818;DHT22;5966;52.402;5.322;2023-03-14T13:41:04;7.70;99.90
11818;DHT22;5966;52.402;5.322;2023-03-14T13:43:35;7.60;99.90
11818;DHT22;5966;52.402;5.322;2023-03-14T13:46:05;7.60;99.90
11818;DHT22;5966;52.402;5.322;2023-03-14T13:48:35;7.50;99.90
11818;DHT22;5966;52.402;5.322;2023-03-14T13:51:10;7.60;99.90
11818;DHT22;5966;52.402;5.322;2023-03-14T13:53:43;7.60;99.90
11818;DHT22;5966;52.402;5.322;2023-03-14T13:56:13;7.60;99.90
11818;DHT22;5966;52.402;5.322;2023-03-14T13:58:41;7.50;99.90
11818;DHT22;5966;52.402;5.322;2023-03-14T14:01:15;7.60;99.90
11818;DHT22;5966;52.402;5.322;2023-03-14T14:03:46;7.60;99.90
11818;DHT22;5966;52.402;5.322;2023-03-14T14:06:27;7.60;99.90
11818;DHT22;5966;52.402;5.322;2023-03-14T14:08:58;7.60;99.90
11818;DHT22;5966;52.402;5.322;2023-03-14T14:11:42;7.40;99.90
11818;DHT22;5966;52.402;5.322;2023-03-14T14:14:30;7.30;99.90
11818;DHT22;5966;52.402;5.322;2023-03-14T14:17:00;7.20;99.90
11818;DHT22;5966;52.402;5.322;2023-03-14T14:19:30;7.20;99.90
11818;DHT22;5966;52.402;5.322;2023-03-14T14:22:00;7.30;99.90
11818;DHT22;5966;52.402;5.322;2023-03-14T14:24:30;7.30;99.90
11818;DHT22;5966;52.402;5.322;2023-03-14T14:27:02;7.20;99.90
11818;DHT22;5966;52.402;5.322;2023-03-14T14:29:35;7.30;99.90
11818;DHT22;5966;52.402;5.322;2023-03-14T14:32:10;7.30;99.90
11818;DHT22;5966;52.402;5.322;2023-03-14T14:34:39;7.10;99.90
11818;DHT22;5966;52.402;5.322;2023-03-14T14:37:20;7.10;99.90
11818;DHT22;5966;52.402;5.322;2023-03-14T14:39:53;7.10;99.90
11818;DHT22;5966;52.402;5.322;2023-03-14T14:42:26;7.00;99.90
11818;DHT22;5966;52.402;5.322;2023-03-14T14:44:56;7.20;99.90
11818;DHT22;5966;52.402;5.322;2023-03-14T14:47:26;7.20;99.90
11818;DHT22;5966;52.402;5.322;2023-03-14T14:49:59;7.30;99.90
11818;DHT22;5966;52.402;5.322;2023-03-14T14:52:36;7.30;99.90
11818;DHT22;5966;52.402;5.322;2023-03-14T14:55:12;7.30;99.90
11818;DHT22;5966;52.402;5.322;2023-03-14T14:57:48;7.20;99.90
11818;DHT22;5966;52.402;5.322;2023-03-14T15:00:19;7.10;99.90
11818;DHT22;5966;52.402;5.322;2023-03-14T15:02:48;7.00;99.90
11818;DHT22;5966;52.402;5.322;2023-03-14T15:05:22;7.10;99.90
11818;DHT22;5966;52.402;5.322;2023-03-14T15:07:51;7.10;99.90
11818;DHT22;5966;52.402;5.322;2023-03-14T15:10:21;7.10;99.90
11818;DHT22;5966;52.402;5.322;2023-03-14T15:12:51;7.10;99.90
11818;DHT22;5966;52.402;5.322;2023-03-14T15:15:19;7.10;99.90
11818;DHT22;5966;52.402;5.322;2023-03-14T15:17:47;7.10;99.90
11818;DHT22;5966;52.402;5.322;2023-03-14T15:20:16;7.10;99.90
11818;DHT22;5966;52.402;5.322;2023-03-14T15:22:45;7.10;99.90
11818;DHT22;5966;52.402;5.322;2023-03-14T15:25:14;7.10;99.90
11818;DHT22;5966;52.402;5.322;2023-03-14T15:28:03;7.10;99.90
11818;DHT22;5966;52.402;5.322;2023-03-14T15:30:32;7.00;99.90
11818;DHT22;5966;52.402;5.322;2023-03-14T15:33:00;7.00;99.90
11818;DHT22;5966;52.402;5.322;2023-03-14T15:35:28;7.00;99.90
11818;DHT22;5966;52.402;5.322;2023-03-14T15:37:56;7.10;99.90
11818;DHT22;5966;52.402;5.322;2023-03-14T15:40:25;7.20;99.90
11818;DHT22;5966;52.402;5.322;2023-03-14T15:42:56;7.10;99.90
11818;DHT22;5966;52.402;5.322;2023-03-14T15:45:25;7.10;99.90
11818;DHT22;5966;52.402;5.322;2023-03-14T15:47:54;7.10;99.90
11818;DHT22;5966;52.402;5.322;2023-03-14T15:50:22;7.10;99.90
11818;DHT22;5966;52.402;5.322;2023-03-14T15:52:52;7.10;99.90
11818;DHT22;5966;52.402;5.322;2023-03-14T15:55:20;7.10;99.90
11818;DHT22;5966;52.402;5.322;2023-03-14T15:57:48;7.10;99.90
11818;DHT22;5966;52.402;5.322;2023-03-14T16:00:18;7.10;99.90
11818;DHT22;5966;52.402;5.322;2023-03-14T16:02:49;7.10;99.90
11818;DHT22;5966;52.402;5.322;2023-03-14T16:05:17;7.00;99.90
11818;DHT22;5966;52.402;5.322;2023-03-14T16:07:47;7.00;99.90
11818;DHT22;5966;52.402;5.322;2023-03-14T16:10:15;6.90;99.90
11818;DHT22;5966;52.402;5.322;2023-03-14T16:12:43;6.90;99.90
11818;DHT22;5966;52.402;5.322;2023-03-14T16:15:11;6.90;99.90
11818;DHT22;5966;52.402;5.322;2023-03-14T16:17:39;6.80;99.90
11818;DHT22;5966;52.402;5.322;2023-03-14T16:20:11;6.70;99.90
11818;DHT22;5966;52.402;5.322;2023-03-14T16:22:39;6.70;99.90
11818;DHT22;5966;52.402;5.322;2023-03-14T16:25:11;6.70;99.90